Skip to main content

Castro Verde, N.Corvo

ID 1210864 · 37.5766, -7.9721 map

Latest reading · 2026-05-09 19:00 (Europe/Lisbon)

Temperature
17.8 °C
Humidity
63 %
Pressure
Precipitation
0.0 mm
Radiation
921 W/m²
Wind speed
23.4 km/h
Wind direction
SW · South-west

24-hour history

Time (Europe/Lisbon) Temp Humidity Pressure Rain Wind Dir
2026-05-09 19:00 17.8 °C 63 % 0.0 mm 23.4 km/h SW
2026-05-09 18:00 18.7 °C 59 % 0.0 mm 25.9 km/h SW
2026-05-09 17:00 18.2 °C 68 % 0.0 mm 20.5 km/h SW
2026-05-09 16:00 19.4 °C 64 % 0.1 mm 17.3 km/h W
2026-05-09 15:00 18.8 °C 67 % 0.0 mm 25.2 km/h S
2026-05-09 14:00 18.8 °C 61 % 0.0 mm 22.0 km/h SW
2026-05-09 13:00 18.5 °C 62 % 0.0 mm 22.3 km/h SW
2026-05-09 12:00 16.9 °C 73 % 0.0 mm 19.4 km/h SW
2026-05-09 11:00 16.5 °C 82 % 0.0 mm 18.4 km/h SW
2026-05-09 10:00 15.5 °C 95 % 0.5 mm 22.7 km/h SW
2026-05-09 09:00 15.1 °C 96 % 0.0 mm 22.7 km/h SW
2026-05-09 08:00 13.7 °C 99 % 1.0 mm 14.4 km/h S
2026-05-09 07:00 14.3 °C 97 % 0.0 mm 17.3 km/h S
2026-05-09 06:00 13.8 °C 99 % 1.4 mm 18.7 km/h S
2026-05-09 05:00 12.9 °C 99 % 0.0 mm 14.4 km/h SE
2026-05-09 04:00 12.6 °C 99 % 1.1 mm 12.6 km/h S
2026-05-09 03:00 12.9 °C 99 % 1.9 mm 11.2 km/h S
2026-05-09 02:00 13.0 °C 99 % 0.9 mm 9.7 km/h S
2026-05-09 01:00 12.6 °C 99 % 0.0 mm 10.8 km/h SE
2026-05-09 00:00 13.2 °C 99 % 0.0 mm 11.2 km/h S
2026-05-08 23:00 14.2 °C 94 % 2.7 mm 9.0 km/h SE
2026-05-08 22:00 15.9 °C 74 % 0.0 mm 15.8 km/h S
2026-05-08 21:00 16.2 °C 68 % 0.0 mm 15.5 km/h S
2026-05-08 20:00 17.3 °C 59 % 0.0 mm 14.0 km/h S